Time;durP1;ratioP1;P1;durP2;ratioP2;P2;SDS_P1;SDS_P2;PMS_P1;PMS_P2;Temp;Humidity;BMP_temperature;BMP_pressure;BME280_temperature;BME280_humidity;BME280_pressure;Samples;Min_cycle;Max_cycle;Signal;HPM_P1;HPM_P2
2022/06/17 00:01:48;;;;;;;2.65;1.40;;;14.20;99.90;;;;;;5015584;28;20025;-74
2022/06/17 00:04:16;;;;;;;2.75;1.35;;;14.20;99.90;;;;;;5015564;28;20022;-74
2022/06/17 00:06:54;;;;;;;2.35;1.13;;;14.20;99.90;;;;;;5014267;28;20113;-74
2022/06/17 00:09:24;;;;;;;3.25;1.33;;;14.30;99.90;;;;;;5014512;28;20021;-74
2022/06/17 00:11:52;;;;;;;3.92;1.23;;;14.30;99.90;;;;;;5015269;28;20026;-75
2022/06/17 00:14:33;;;;;;;3.53;1.27;;;14.40;99.90;;;;;;5015542;28;20032;-74
2022/06/17 00:17:07;;;;;;;2.33;1.05;;;14.60;99.90;;;;;;5015566;28;20033;-74
2022/06/17 00:19:34;;;;;;;4.07;1.45;;;14.70;99.90;;;;;;5015352;28;20080;-74
2022/06/17 00:22:03;;;;;;;1.30;0.80;;;14.70;99.90;;;;;;5015744;28;20030;-74
2022/06/17 00:24:34;;;;;;;4.97;1.60;;;14.80;99.90;;;;;;5013870;28;20100;-74
2022/06/17 00:27:01;;;;;;;2.78;0.80;;;15.00;99.90;;;;;;5013850;28;20021;-74
2022/06/17 00:29:31;;;;;;;2.92;1.20;;;15.00;99.90;;;;;;5013813;28;20104;-74
2022/06/17 00:31:59;;;;;;;1.90;1.10;;;15.00;99.90;;;;;;5013777;28;20394;-75
2022/06/17 00:34:26;;;;;;;2.92;1.20;;;15.00;99.90;;;;;;5014970;28;20052;-75
2022/06/17 00:36:58;;;;;;;4.45;0.90;;;15.10;99.90;;;;;;5015050;28;20029;-74
2022/06/17 00:39:31;;;;;;;1.40;0.70;;;15.20;99.90;;;;;;5013620;28;20413;-74
2022/06/17 00:42:09;;;;;;;2.55;0.88;;;15.20;99.90;;;;;;5014896;28;20057;-74
2022/06/17 00:44:39;;;;;;;3.05;1.08;;;15.30;99.90;;;;;;5014807;28;20022;-75
2022/06/17 00:47:45;;;;;;;3.13;0.68;;;15.40;99.90;;;;;;5015037;28;20045;-75
2022/06/17 00:50:31;;;;;;;1.27;0.77;;;15.50;99.90;;;;;;5013477;28;20037;-74
2022/06/17 00:53:22;;;;;;;1.70;0.60;;;15.60;99.90;;;;;;5013317;28;20029;-74
2022/06/17 00:55:59;;;;;;;1.65;0.70;;;15.70;99.90;;;;;;5014634;28;20025;-74
2022/06/17 00:58:54;;;;;;;1.90;0.80;;;15.80;99.90;;;;;;5014192;28;20049;-75
2022/06/17 01:01:23;;;;;;;2.05;0.50;;;15.90;99.90;;;;;;5006330;28;20040;-76
2022/06/17 01:03:55;;;;;;;0.90;0.40;;;15.90;99.90;;;;;;5014361;28;20037;-76
2022/06/17 01:06:28;;;;;;;2.95;0.60;;;16.00;99.90;;;;;;5014382;28;20022;-76
2022/06/17 01:11:48;;;;;;;0.70;0.47;;;16.10;99.90;;;;;;5014497;28;20057;-75
2022/06/17 01:14:19;;;;;;;1.52;0.80;;;16.10;99.90;;;;;;5014407;28;20068;-76
2022/06/17 01:16:47;;;;;;;1.02;0.50;;;16.20;99.90;;;;;;5014149;28;20080;-76
2022/06/17 01:19:36;;;;;;;1.23;0.45;;;16.40;99.90;;;;;;5014088;28;20552;-76
2022/06/17 01:22:12;;;;;;;1.98;0.50;;;16.30;99.90;;;;;;5012826;28;20030;-76
2022/06/17 01:24:40;;;;;;;2.47;0.40;;;16.40;99.90;;;;;;5012222;28;20032;-76
2022/06/17 01:27:08;;;;;;;1.60;0.52;;;16.50;99.90;;;;;;5012675;28;20017;-75
2022/06/17 01:29:35;;;;;;;3.58;0.80;;;16.70;99.90;;;;;;5013843;28;20029;-76
2022/06/17 01:32:03;;;;;;;1.20;0.50;;;16.70;99.90;;;;;;5012657;28;20394;-76
2022/06/17 01:34:31;;;;;;;1.02;0.50;;;16.70;99.90;;;;;;5013686;28;20036;-76
2022/06/17 01:36:59;;;;;;;2.60;0.35;;;16.80;99.90;;;;;;5012588;28;20478;-76
2022/06/17 01:39:26;;;;;;;0.75;0.30;;;16.90;99.90;;;;;;5013820;28;20021;-76
2022/06/17 01:41:53;;;;;;;1.75;0.40;;;16.80;99.90;;;;;;5013615;28;20478;-76
2022/06/17 01:44:33;;;;;;;0.60;0.45;;;16.80;99.90;;;;;;5013835;28;20498;-75
2022/06/17 01:47:23;;;;;;;0.80;0.50;;;16.80;99.90;;;;;;5012423;28;20022;-75
2022/06/17 01:49:54;;;;;;;1.27;0.47;;;16.80;99.90;;;;;;5012326;28;20029;-75
2022/06/17 01:52:33;;;;;;;1.65;0.50;;;16.90;99.90;;;;;;5014016;28;20453;-76
2022/06/17 01:55:14;;;;;;;1.48;0.50;;;17.00;99.90;;;;;;5012211;28;20032;-76
2022/06/17 01:58:17;;;;;;;1.27;0.40;;;17.20;99.90;;;;;;5013491;28;20426;-76
2022/06/17 02:00:44;;;;;;;0.77;0.45;;;17.30;99.90;;;;;;5013698;28;20064;-76
2022/06/17 02:03:24;;;;;;;1.83;0.30;;;17.40;99.90;;;;;;5012155;28;20032;-75
2022/06/17 02:06:07;;;;;;;2.10;0.45;;;17.40;99.90;;;;;;5013410;28;20022;-76
2022/06/17 02:08:35;;;;;;;0.40;0.30;;;17.40;99.90;;;;;;5012165;28;20049;-76
2022/06/17 02:11:04;;;;;;;1.08;0.50;;;17.50;99.90;;;;;;5013305;28;20029;-75
2022/06/17 02:13:33;;;;;;;1.77;0.50;;;17.60;99.90;;;;;;5013312;28;20393;-74
2022/06/17 02:16:02;;;;;;;1.20;0.50;;;17.50;99.90;;;;;;5013284;28;20028;-74
2022/06/17 02:18:30;;;;;;;0.40;0.25;;;17.50;99.90;;;;;;5012027;28;20030;-72
2022/06/17 02:21:01;;;;;;;0.80;0.40;;;17.50;99.90;;;;;;5013271;28;20528;-75
2022/06/17 02:23:30;;;;;;;0.68;0.40;;;17.70;99.90;;;;;;5013644;28;20029;-74
2022/06/17 02:26:00;;;;;;;1.10;0.30;;;17.50;99.90;;;;;;5013112;28;20097;-75
2022/06/17 02:28:29;;;;;;;2.47;0.50;;;17.70;99.90;;;;;;5013487;28;20018;-75
2022/06/17 02:30:59;;;;;;;2.58;0.77;;;17.90;99.90;;;;;;5013080;28;20109;-74
2022/06/17 02:33:29;;;;;;;1.75;0.40;;;18.10;99.90;;;;;;5013096;28;20461;-75
2022/06/17 02:36:04;;;;;;;4.70;0.40;;;18.00;99.90;;;;;;5016859;28;20056;-75
2022/06/17 02:38:36;;;;;;;1.02;0.50;;;18.00;99.90;;;;;;5017397;28;20030;-75
2022/06/17 02:41:07;;;;;;;2.58;0.47;;;18.10;99.90;;;;;;5015879;28;20037;-75
2022/06/17 02:43:42;;;;;;;1.48;0.68;;;18.00;99.90;;;;;;5017042;28;20034;-75
2022/06/17 02:46:20;;;;;;;1.25;0.30;;;18.20;99.90;;;;;;5017048;28;20354;-74
2022/06/17 02:48:54;;;;;;;2.58;0.55;;;18.50;99.90;;;;;;5017030;28;20018;-72
2022/06/17 02:51:24;;;;;;;1.65;0.63;;;18.70;99.90;;;;;;5016829;28;20105;-74
2022/06/17 02:53:51;;;;;;;1.15;0.40;;;18.80;99.90;;;;;;5016903;28;20056;-74
2022/06/17 02:56:26;;;;;;;1.23;0.40;;;18.80;99.90;;;;;;5016898;28;20025;-73
2022/06/17 02:59:15;;;;;;;1.83;0.60;;;18.80;99.90;;;;;;5015638;28;20042;-74
2022/06/17 03:01:43;;;;;;;2.28;0.85;;;18.80;99.90;;;;;;5016645;28;20037;-74
2022/06/17 03:04:18;;;;;;;1.77;0.57;;;19.20;99.90;;;;;;5015410;28;20025;-74
2022/06/17 03:06:48;;;;;;;1.55;0.30;;;19.20;99.90;;;;;;5016732;28;20108;-74
2022/06/17 03:09:30;;;;;;;2.30;0.40;;;19.50;99.90;;;;;;5016643;28;20129;-75
2022/06/17 03:12:09;;;;;;;1.83;0.40;;;19.40;99.90;;;;;;5016486;28;20026;-74
2022/06/17 03:14:48;;;;;;;0.47;0.20;;;19.60;99.90;;;;;;5016593;28;20032;-75
2022/06/17 03:17:23;;;;;;;0.25;0.20;;;19.60;99.90;;;;;;5016483;28;20030;-74
2022/06/17 03:19:52;;;;;;;1.50;0.60;;;19.80;99.90;;;;;;5016473;28;20105;-74
2022/06/17 03:22:20;;;;;;;0.30;0.30;;;19.80;99.90;;;;;;5016277;28;20022;-75
2022/06/17 03:24:50;;;;;;;1.02;0.70;;;19.60;99.90;;;;;;5015089;28;20021;-74
2022/06/17 03:27:32;;;;;;;5.20;1.40;;;19.30;99.90;;;;;;5016273;28;20021;-74
2022/06/17 03:30:01;;;;;;;1.58;0.43;;;19.30;99.90;;;;;;5016296;28;20060;-74
2022/06/17 03:32:37;;;;;;;1.00;0.52;;;19.40;99.90;;;;;;5016105;28;20029;-73
2022/06/17 03:35:05;;;;;;;2.45;0.80;;;19.60;99.90;;;;;;5014844;28;20038;-74
2022/06/17 03:37:39;;;;;;;3.28;1.00;;;19.70;99.90;;;;;;5016027;28;20021;-75
2022/06/17 03:40:26;;;;;;;2.30;0.75;;;19.40;99.90;;;;;;5014791;28;20375;-73
2022/06/17 03:43:08;;;;;;;2.08;0.70;;;19.20;99.90;;;;;;5015989;28;20054;-73
2022/06/17 03:46:03;;;;;;;2.35;0.90;;;18.90;99.90;;;;;;5015568;28;20054;-72
2022/06/17 03:48:46;;;;;;;1.48;0.50;;;18.70;99.90;;;;;;5010916;28;20040;-72
2022/06/17 03:51:23;;;;;;;2.10;0.70;;;18.60;99.90;;;;;;5016086;28;20014;-72
2022/06/17 03:53:51;;;;;;;2.35;0.50;;;18.60;99.90;;;;;;5014389;28;20120;-72
2022/06/17 03:56:26;;;;;;;2.45;0.80;;;18.80;99.90;;;;;;5014386;28;20018;-72
2022/06/17 03:58:57;;;;;;;2.90;0.70;;;18.90;99.90;;;;;;5014215;28;20045;-72
2022/06/17 04:01:33;;;;;;;2.88;1.00;;;18.90;99.90;;;;;;5014347;28;20018;-72
2022/06/17 04:04:05;;;;;;;2.03;0.77;;;18.70;99.90;;;;;;5015715;28;20025;-70
2022/06/17 04:06:38;;;;;;;2.00;0.70;;;18.60;99.90;;;;;;5014148;28;20512;-72
2022/06/17 04:09:17;;;;;;;2.63;0.88;;;18.70;99.90;;;;;;5015479;28;20589;-72
2022/06/17 04:11:48;;;;;;;3.60;0.93;;;18.70;99.90;;;;;;5013967;28;20034;-71
2022/06/17 04:14:54;;;;;;;2.90;0.70;;;18.50;99.90;;;;;;5014094;28;20478;-71
2022/06/17 04:17:37;;;;;;;2.75;1.08;;;18.60;99.90;;;;;;4993076;28;20056;-72
2022/06/17 04:20:23;;;;;;;3.53;1.20;;;18.80;99.90;;;;;;5015213;28;20029;-71
2022/06/17 04:22:58;;;;;;;4.38;1.00;;;18.80;99.90;;;;;;5015170;28;20026;-72
2022/06/17 04:25:34;;;;;;;1.17;0.70;;;18.80;99.90;;;;;;5015065;28;20022;-73
2022/06/17 04:28:06;;;;;;;3.67;0.98;;;18.80;99.90;;;;;;5015333;28;20621;-72
2022/06/17 04:30:42;;;;;;;2.50;0.90;;;18.80;99.90;;;;;;5015007;28;20101;-73
2022/06/17 04:33:21;;;;;;;2.08;0.80;;;18.70;99.90;;;;;;5013728;28;20022;-73
2022/06/17 04:35:59;;;;;;;3.80;1.13;;;18.50;99.90;;;;;;5013605;28;20060;-73
2022/06/17 04:38:28;;;;;;;2.88;0.93;;;18.50;99.90;;;;;;5014978;28;20026;-73
2022/06/17 04:41:00;;;;;;;2.15;0.77;;;18.30;99.90;;;;;;5014738;28;20512;-73
2022/06/17 04:43:40;;;;;;;1.77;0.77;;;18.30;99.90;;;;;;5015000;28;20105;-71
2022/06/17 04:46:22;;;;;;;1.23;0.65;;;18.20;99.90;;;;;;5014837;28;20104;-73
2022/06/17 04:48:51;;;;;;;4.30;0.90;;;18.20;99.90;;;;;;5015264;28;20021;-74
2022/06/17 04:51:19;;;;;;;1.75;0.80;;;18.30;99.90;;;;;;5014887;28;20026;-73
2022/06/17 04:53:48;;;;;;;2.03;0.80;;;18.20;99.90;;;;;;5013145;28;20390;-73
2022/06/17 04:56:31;;;;;;;1.55;0.50;;;18.20;99.90;;;;;;5013147;28;20025;-74
2022/06/17 04:58:58;;;;;;;1.75;0.60;;;18.10;99.90;;;;;;5012445;28;20091;-73
2022/06/17 05:01:29;;;;;;;5.53;0.80;;;18.10;99.90;;;;;;5012977;28;20025;-73
2022/06/17 05:04:03;;;;;;;4.25;1.08;;;18.10;99.90;;;;;;5015306;28;20477;-73
2022/06/17 05:06:30;;;;;;;1.52;0.60;;;18.00;99.90;;;;;;5013375;28;20062;-74
2022/06/17 05:09:05;;;;;;;2.28;0.60;;;18.00;99.90;;;;;;5013041;28;20028;-73
2022/06/17 05:11:41;;;;;;;8.73;1.38;;;18.00;99.90;;;;;;5014335;28;20049;-73
2022/06/17 05:14:08;;;;;;;3.30;0.70;;;17.90;99.90;;;;;;5014440;28;20076;-73
2022/06/17 05:16:36;;;;;;;1.35;0.57;;;17.80;99.90;;;;;;5014201;28;20085;-72
2022/06/17 05:19:03;;;;;;;4.28;0.90;;;17.70;99.90;;;;;;5014307;28;20026;-73
2022/06/17 05:21:30;;;;;;;1.85;0.80;;;17.70;99.90;;;;;;5014066;28;20355;-72
2022/06/17 05:23:59;;;;;;;3.13;1.08;;;17.60;99.90;;;;;;5014040;28;20022;-72
2022/06/17 05:26:27;;;;;;;3.20;0.80;;;17.40;99.90;;;;;;5012661;28;20105;-74
2022/06/17 05:28:54;;;;;;;1.48;0.70;;;17.40;99.90;;;;;;5012737;28;20174;-73
2022/06/17 05:31:26;;;;;;;3.92;0.80;;;17.30;99.90;;;;;;5012589;28;20029;-73
2022/06/17 05:33:53;;;;;;;1.67;0.77;;;17.20;99.90;;;;;;5014079;28;20045;-74
2022/06/17 05:36:21;;;;;;;0.90;0.70;;;17.10;99.90;;;;;;5013851;28;20022;-72
2022/06/17 05:38:48;;;;;;;3.78;1.00;;;17.10;99.90;;;;;;5013888;28;20025;-72
2022/06/17 05:41:18;;;;;;;2.50;1.17;;;17.00;99.90;;;;;;5014159;28;20390;-71
2022/06/17 05:43:45;;;;;;;2.92;0.85;;;17.10;99.90;;;;;;5014151;28;20108;-72
2022/06/17 05:46:12;;;;;;;3.45;1.25;;;17.10;99.90;;;;;;5013711;28;20025;-72
2022/06/17 05:48:40;;;;;;;2.58;1.00;;;17.10;99.90;;;;;;5013742;28;20485;-74
2022/06/17 05:51:07;;;;;;;2.78;0.93;;;17.00;99.90;;;;;;5012213;28;20080;-74
2022/06/17 05:53:34;;;;;;;1.95;0.70;;;17.00;99.90;;;;;;5013713;28;20053;-73
2022/06/17 05:56:02;;;;;;;3.13;0.88;;;17.00;99.90;;;;;;5014059;28;20057;-75
2022/06/17 05:58:29;;;;;;;3.28;1.05;;;16.90;99.90;;;;;;5013198;28;20045;-75
2022/06/17 06:00:56;;;;;;;3.47;0.88;;;16.80;99.90;;;;;;5012214;28;20026;-75
2022/06/17 06:03:26;;;;;;;2.88;1.05;;;16.70;99.90;;;;;;5013360;28;20030;-75
2022/06/17 06:05:53;;;;;;;5.35;1.00;;;16.70;99.90;;;;;;5013481;28;20032;-74
2022/06/17 06:08:21;;;;;;;2.17;1.10;;;16.60;99.90;;;;;;5011973;28;20022;-74
2022/06/17 06:10:49;;;;;;;2.17;0.90;;;16.60;99.90;;;;;;5013062;28;20030;-75
2022/06/17 06:13:21;;;;;;;3.33;1.08;;;16.50;99.90;;;;;;5013218;28;20485;-75
2022/06/17 06:15:50;;;;;;;4.22;1.15;;;16.40;99.90;;;;;;5013801;28;20084;-74
2022/06/17 06:18:21;;;;;;;3.97;1.10;;;16.30;99.90;;;;;;5013198;28;20076;-75
2022/06/17 06:20:50;;;;;;;2.92;1.25;;;16.30;99.90;;;;;;5013305;28;20025;-74
2022/06/17 06:23:17;;;;;;;4.22;1.30;;;16.20;99.90;;;;;;5012920;28;20109;-74
2022/06/17 06:25:45;;;;;;;5.63;1.40;;;16.20;99.90;;;;;;5011852;28;20026;-75
2022/06/17 06:28:23;;;;;;;3.85;1.10;;;16.20;99.90;;;;;;5013068;28;20033;-74
2022/06/17 06:31:13;;;;;;;3.28;1.40;;;16.20;99.90;;;;;;5011818;28;20158;-75
2022/06/17 06:33:41;;;;;;;3.83;1.20;;;16.20;99.90;;;;;;5013127;28;20037;-75
2022/06/17 06:36:08;;;;;;;4.22;1.13;;;16.10;99.90;;;;;;5011697;28;20071;-75
2022/06/17 06:38:36;;;;;;;4.45;1.15;;;16.10;99.90;;;;;;5011537;28;20033;-74
2022/06/17 06:41:05;;;;;;;7.30;1.60;;;16.10;99.90;;;;;;5012951;28;20105;-75
2022/06/17 06:43:33;;;;;;;4.55;1.45;;;16.00;99.90;;;;;;5013046;28;20128;-74
2022/06/17 06:46:05;;;;;;;2.25;1.10;;;16.00;99.90;;;;;;5013041;28;20037;-74
2022/06/17 06:48:32;;;;;;;2.45;1.30;;;16.00;99.90;;;;;;5011606;28;20026;-75
2022/06/17 06:50:59;;;;;;;4.20;1.40;;;16.00;99.90;;;;;;5013115;28;20103;-75
2022/06/17 06:53:27;;;;;;;3.92;1.20;;;16.00;99.90;;;;;;5012860;28;20028;-74
2022/06/17 06:55:54;;;;;;;5.40;1.38;;;15.90;99.90;;;;;;5012774;28;20156;-74
2022/06/17 06:58:24;;;;;;;6.78;1.40;;;15.90;99.90;;;;;;5012450;28;20050;-74
2022/06/17 07:00:56;;;;;;;4.63;1.67;;;15.90;99.90;;;;;;5012620;28;20029;-74
2022/06/17 07:03:26;;;;;;;4.95;2.53;;;15.90;99.90;;;;;;5012756;28;20033;-75
2022/06/17 07:06:01;;;;;;;5.00;1.88;;;15.90;99.90;;;;;;5012829;28;20022;-75
2022/06/17 07:08:31;;;;;;;4.40;1.80;;;15.90;99.90;;;;;;5013236;28;20025;-74
2022/06/17 07:10:59;;;;;;;6.40;2.00;;;16.00;99.90;;;;;;5012812;28;20018;-75
2022/06/17 07:13:29;;;;;;;5.53;2.38;;;15.90;99.90;;;;;;5012784;28;20022;-75
2022/06/17 07:15:56;;;;;;;6.85;2.40;;;15.90;99.90;;;;;;5011551;28;20478;-75
2022/06/17 07:18:28;;;;;;;5.80;2.42;;;15.70;99.90;;;;;;5012712;28;20029;-75
2022/06/17 07:20:58;;;;;;;6.13;2.33;;;15.60;99.90;;;;;;5013253;28;20393;-75
2022/06/17 07:23:34;;;;;;;6.03;2.30;;;15.60;99.90;;;;;;5016318;28;20030;-74
2022/06/17 07:26:08;;;;;;;5.75;2.40;;;15.60;99.90;;;;;;5015067;28;20037;-74
2022/06/17 07:28:35;;;;;;;3.67;2.38;;;15.50;99.90;;;;;;5015255;28;20483;-75
2022/06/17 07:31:03;;;;;;;6.28;2.20;;;15.40;99.90;;;;;;5014911;28;20029;-75
2022/06/17 07:33:31;;;;;;;4.68;1.55;;;15.30;99.90;;;;;;5016574;28;20030;-75
2022/06/17 07:36:01;;;;;;;3.75;1.40;;;15.20;99.90;;;;;;5016085;28;20113;-76
2022/06/17 07:41:24;;;;;;;7.32;1.90;;;15.00;99.90;;;;;;5016363;28;20037;-75
2022/06/17 07:43:51;;;;;;;4.28;1.40;;;15.00;99.90;;;;;;5014769;28;20018;-75
2022/06/17 07:46:19;;;;;;;3.30;1.45;;;15.10;99.90;;;;;;5015996;28;20017;-74
2022/06/17 07:48:46;;;;;;;3.67;1.70;;;15.10;99.90;;;;;;5014595;28;20018;-75
2022/06/17 07:51:14;;;;;;;6.22;1.63;;;15.20;99.90;;;;;;5014556;28;20022;-75
2022/06/17 07:53:42;;;;;;;3.50;1.63;;;15.30;99.90;;;;;;5016236;28;20049;-75
2022/06/17 07:56:15;;;;;;;4.90;2.20;;;15.20;99.90;;;;;;5015790;28;20056;-75
2022/06/17 07:58:44;;;;;;;4.70;2.50;;;15.20;99.90;;;;;;5015368;28;20128;-74
2022/06/17 08:01:13;;;;;;;4.80;2.33;;;15.20;99.90;;;;;;5014373;28;20030;-75
2022/06/17 08:03:41;;;;;;;5.40;2.25;;;15.20;99.90;;;;;;5015200;28;20022;-74
2022/06/17 08:06:13;;;;;;;2.25;1.40;;;15.20;99.90;;;;;;5016052;28;20026;-75
2022/06/17 08:08:41;;;;;;;3.55;1.88;;;15.20;99.90;;;;;;5014161;28;20429;-75
2022/06/17 08:11:09;;;;;;;5.28;2.53;;;15.20;99.90;;;;;;5015519;28;20533;-75
2022/06/17 08:13:37;;;;;;;6.40;1.83;;;15.30;99.90;;;;;;5015469;28;20473;-74
2022/06/17 08:16:07;;;;;;;4.10;2.60;;;15.30;99.90;;;;;;5015440;28;20026;-75
2022/06/17 08:18:35;;;;;;;4.30;2.33;;;15.30;99.90;;;;;;5014038;28;20458;-74
2022/06/17 08:21:03;;;;;;;6.03;2.92;;;15.30;99.90;;;;;;5015325;28;20053;-75
2022/06/17 08:23:31;;;;;;;4.22;2.55;;;15.30;99.90;;;;;;5013868;28;20441;-76
2022/06/17 08:26:00;;;;;;;7.25;3.13;;;15.40;99.90;;;;;;5013918;28;20022;-75
2022/06/17 08:28:29;;;;;;;3.63;2.13;;;15.40;99.90;;;;;;5015478;28;20106;-76
2022/06/17 08:30:57;;;;;;;4.95;2.47;;;15.40;99.90;;;;;;5014214;28;20022;-76
2022/06/17 08:33:32;;;;;;;4.05;2.45;;;15.40;99.90;;;;;;5014993;28;20117;-76
2022/06/17 08:36:12;;;;;;;4.53;2.30;;;15.50;99.90;;;;;;5013791;28;20433;-73
2022/06/17 08:38:45;;;;;;;4.22;2.50;;;15.40;99.90;;;;;;5013722;28;20026;-73
2022/06/17 08:41:33;;;;;;;4.65;2.28;;;15.50;99.90;;;;;;5014947;28;20025;-73
2022/06/17 08:44:28;;;;;;;3.25;2.30;;;15.40;99.90;;;;;;5013840;28;20335;-74
2022/06/17 08:47:27;;;;;;;3.88;2.53;;;15.40;99.90;;;;;;5013583;28;20026;-74
2022/06/17 08:50:17;;;;;;;4.40;2.72;;;15.40;99.90;;;;;;5013424;28;20037;-72
2022/06/17 08:52:53;;;;;;;4.53;2.85;;;15.40;99.90;;;;;;5006066;28;20034;-73
2022/06/17 08:55:35;;;;;;;4.60;3.05;;;15.40;99.90;;;;;;5014687;28;20021;-72
2022/06/17 08:58:30;;;;;;;4.95;2.60;;;15.50;99.90;;;;;;5014591;28;20053;-74
2022/06/17 09:01:24;;;;;;;4.82;2.53;;;15.50;99.90;;;;;;5014612;28;20030;-73
2022/06/17 09:03:58;;;;;;;3.10;1.90;;;15.60;99.90;;;;;;5014890;28;20390;-72
2022/06/17 09:06:35;;;;;;;4.25;1.75;;;15.50;99.90;;;;;;5013173;28;20029;-73
2022/06/17 09:09:22;;;;;;;3.50;1.77;;;15.50;99.90;;;;;;5014804;28;20471;-72
2022/06/17 09:12:13;;;;;;;5.05;2.33;;;15.40;99.90;;;;;;5014989;28;20072;-74
2022/06/17 09:15:07;;;;;;;4.85;1.90;;;15.40;99.90;;;;;;5013088;28;20034;-74
2022/06/17 09:17:52;;;;;;;3.95;1.95;;;15.30;99.90;;;;;;5013089;28;20033;-75
2022/06/17 09:20:31;;;;;;;4.95;2.55;;;15.30;99.90;;;;;;5012997;28;20022;-75
2022/06/17 09:23:02;;;;;;;5.22;3.50;;;15.30;99.90;;;;;;5012769;28;20041;-75
2022/06/17 09:25:44;;;;;;;7.07;4.18;;;15.20;99.90;;;;;;5014227;28;20018;-75
2022/06/17 09:28:20;;;;;;;5.32;3.60;;;15.20;99.90;;;;;;5012913;28;20026;-75
2022/06/17 09:30:58;;;;;;;5.97;4.10;;;15.20;99.90;;;;;;5014610;28;20033;-75
2022/06/17 09:33:32;;;;;;;4.68;2.95;;;15.20;99.90;;;;;;5012734;28;20030;-75
2022/06/17 09:36:22;;;;;;;5.05;2.20;;;15.20;99.90;;;;;;5014652;28;20363;-75
2022/06/17 09:39:12;;;;;;;4.72;2.60;;;15.20;99.90;;;;;;5012904;28;20037;-75
2022/06/17 09:42:11;;;;;;;4.40;2.20;;;15.10;99.90;;;;;;5013930;28;20030;-75
2022/06/17 09:45:01;;;;;;;4.75;2.38;;;15.10;99.90;;;;;;5011955;28;20113;-75
2022/06/17 09:47:37;;;;;;;4.65;2.42;;;15.10;99.90;;;;;;5013463;28;20454;-73
2022/06/17 09:50:17;;;;;;;5.38;2.67;;;15.00;99.90;;;;;;5012546;28;20590;-74
2022/06/17 09:52:58;;;;;;;5.17;2.23;;;14.90;99.90;;;;;;5012555;28;20178;-73
2022/06/17 09:56:06;;;;;;;4.40;2.20;;;14.90;99.90;;;;;;5013739;28;20026;-75
2022/06/17 09:58:42;;;;;;;4.38;2.58;;;14.80;99.90;;;;;;5011328;28;20050;-75
2022/06/17 10:01:10;;;;;;;5.55;3.20;;;14.70;99.90;;;;;;5013844;28;20030;-75
2022/06/17 10:03:39;;;;;;;5.15;2.83;;;14.70;99.90;;;;;;5012147;28;20375;-74
2022/06/17 10:06:51;;;;;;;4.88;2.38;;;14.70;99.90;;;;;;5012184;28;20433;-74
2022/06/17 10:09:36;;;;;;;4.35;1.90;;;14.60;99.90;;;;;;4991058;28;20111;-74
2022/06/17 10:12:03;;;;;;;5.30;2.22;;;14.50;99.90;;;;;;5012179;28;20064;-76
2022/06/17 10:14:54;;;;;;;4.45;2.25;;;14.50;99.90;;;;;;5013436;28;20022;-75
2022/06/17 10:20:50;;;;;;;3.42;1.98;;;14.30;99.90;;;;;;5013324;28;20540;-75
2022/06/17 10:23:31;;;;;;;4.25;2.20;;;14.20;99.90;;;;;;5013313;28;20482;-74
2022/06/17 10:26:08;;;;;;;3.58;2.53;;;14.20;99.90;;;;;;5013925;28;20466;-75
2022/06/17 10:28:59;;;;;;;5.75;2.78;;;14.20;99.90;;;;;;5013322;28;20077;-75
2022/06/17 10:31:39;;;;;;;4.22;2.47;;;14.20;99.90;;;;;;5013180;28;20031;-75
2022/06/17 10:34:24;;;;;;;4.95;1.90;;;14.30;99.90;;;;;;5011962;28;20057;-75
2022/06/17 10:36:54;;;;;;;5.20;3.50;;;14.30;99.90;;;;;;5013454;28;20026;-75
2022/06/17 10:39:26;;;;;;;5.82;2.97;;;14.30;99.90;;;;;;4995753;28;20033;-75
2022/06/17 10:41:53;;;;;;;6.03;2.75;;;14.20;99.90;;;;;;5013607;28;20443;-76
2022/06/17 10:44:27;;;;;;;5.07;1.88;;;14.20;99.90;;;;;;5011796;28;20029;-75
2022/06/17 10:47:38;;;;;;;5.07;2.20;;;14.20;99.90;;;;;;5013149;28;20026;-75
2022/06/17 10:50:31;;;;;;;3.97;1.85;;;14.10;99.90;;;;;;5010984;28;20038;-75
2022/06/17 10:53:09;;;;;;;5.10;2.55;;;14.10;99.90;;;;;;5012776;28;20521;-74
2022/06/17 10:55:53;;;;;;;6.45;1.80;;;14.10;99.90;;;;;;5013269;28;20050;-75
2022/06/17 10:58:27;;;;;;;3.22;1.65;;;14.00;99.90;;;;;;5015522;28;20049;-74
2022/06/17 11:01:15;;;;;;;5.47;1.50;;;14.00;99.90;;;;;;5017126;28;20034;-75
2022/06/17 11:03:50;;;;;;;6.90;2.08;;;14.00;99.90;;;;;;5016859;28;20041;-75
2022/06/17 11:06:20;;;;;;;3.03;1.80;;;13.90;99.90;;;;;;5017442;28;20018;-75
2022/06/17 11:08:50;;;;;;;2.58;1.60;;;13.90;99.90;;;;;;5016773;28;20444;-75
2022/06/17 11:14:29;;;;;;;3.40;1.83;;;13.80;99.90;;;;;;5017043;28;20037;-76
2022/06/17 11:16:57;;;;;;;7.75;3.17;;;13.70;99.90;;;;;;5016671;28;20030;-75
2022/06/17 11:19:26;;;;;;;5.95;3.08;;;13.70;99.90;;;;;;5016570;28;20022;-74
2022/06/17 11:22:03;;;;;;;4.85;2.30;;;13.70;99.90;;;;;;5016565;28;20029;-75
2022/06/17 11:24:40;;;;;;;5.10;3.03;;;13.60;99.90;;;;;;5016642;28;20117;-74
2022/06/17 11:27:29;;;;;;;5.28;1.90;;;13.60;99.90;;;;;;5015239;28;20018;-75
2022/06/17 11:30:16;;;;;;;2.88;1.35;;;13.50;99.90;;;;;;5015134;28;20105;-75
2022/06/17 11:32:46;;;;;;;3.70;1.73;;;13.50;99.90;;;;;;5014956;28;20026;-75
2022/06/17 11:35:29;;;;;;;3.22;1.27;;;13.50;99.90;;;;;;5016340;28;20026;-75
2022/06/17 11:37:58;;;;;;;6.38;1.20;;;13.50;99.90;;;;;;5015068;28;20030;-75
2022/06/17 11:40:45;;;;;;;2.65;1.00;;;13.50;99.90;;;;;;5016238;28;20034;-74
2022/06/17 11:43:31;;;;;;;2.38;1.08;;;13.50;99.90;;;;;;5016120;28;20053;-75
2022/06/17 11:46:10;;;;;;;2.58;1.15;;;13.40;99.90;;;;;;5016169;28;20030;-74
2022/06/17 11:48:55;;;;;;;2.65;1.40;;;13.40;99.90;;;;;;5016118;28;20494;-75
2022/06/17 11:51:30;;;;;;;1.63;1.33;;;13.40;99.90;;;;;;5014704;28;20072;-75
2022/06/17 11:54:19;;;;;;;3.50;1.38;;;13.50;99.90;;;;;;5014714;28;20069;-75
2022/06/17 11:56:48;;;;;;;2.42;1.30;;;13.50;99.90;;;;;;5016147;28;20036;-75
2022/06/17 11:59:39;;;;;;;6.15;1.60;;;13.50;99.90;;;;;;5014540;28;20042;-76
2022/06/17 12:02:10;;;;;;;2.97;1.02;;;13.50;99.90;;;;;;5014462;28;20026;-76
2022/06/17 12:04:56;;;;;;;3.00;1.58;;;13.50;99.90;;;;;;5014615;28;20034;-75
2022/06/17 12:07:32;;;;;;;4.78;2.25;;;13.50;99.90;;;;;;5014960;28;20447;-76
2022/06/17 12:10:23;;;;;;;4.13;2.10;;;13.40;99.90;;;;;;5014340;28;20478;-75
2022/06/17 12:12:53;;;;;;;4.20;1.30;;;13.40;99.90;;;;;;5010497;28;20113;-76
2022/06/17 12:15:29;;;;;;;4.25;2.00;;;13.30;99.90;;;;;;5014306;28;20038;-75
2022/06/17 12:18:00;;;;;;;4.10;1.00;;;13.20;99.90;;;;;;5015896;28;20121;-75
2022/06/17 12:20:56;;;;;;;3.22;1.65;;;13.20;99.90;;;;;;5015599;28;20053;-74
2022/06/17 12:24:05;;;;;;;3.63;1.58;;;13.20;99.90;;;;;;5015703;28;20109;-76
2022/06/17 12:26:57;;;;;;;3.47;1.52;;;13.30;99.90;;;;;;5015187;28;20025;-76
2022/06/17 12:29:43;;;;;;;3.63;1.77;;;13.30;99.90;;;;;;5016009;28;20022;-76
2022/06/17 12:32:28;;;;;;;3.33;1.25;;;13.30;99.90;;;;;;5013992;28;20026;-76
2022/06/17 12:35:16;;;;;;;5.75;1.38;;;13.40;99.90;;;;;;5015352;28;20434;-77
2022/06/17 12:38:00;;;;;;;2.70;1.20;;;13.40;99.90;;;;;;5013950;28;20470;-76
2022/06/17 12:40:33;;;;;;;1.88;1.23;;;13.40;99.90;;;;;;5013844;28;20057;-76
2022/06/17 12:43:16;;;;;;;4.93;1.65;;;13.40;99.90;;;;;;5014371;28;20022;-76
2022/06/17 12:45:51;;;;;;;2.22;1.20;;;13.40;99.90;;;;;;5013731;28;20410;-75
2022/06/17 12:48:27;;;;;;;4.53;1.30;;;13.30;99.90;;;;;;5013762;28;20401;-76
2022/06/17 12:54:07;;;;;;;2.70;1.30;;;13.30;99.90;;;;;;5014872;28;20048;-73
2022/06/17 12:56:39;;;;;;;3.20;1.45;;;13.20;99.90;;;;;;5013493;28;20030;-75
2022/06/17 12:59:24;;;;;;;3.10;1.65;;;13.10;99.90;;;;;;5013205;28;20057;-75
2022/06/17 13:01:57;;;;;;;2.88;1.90;;;13.10;99.90;;;;;;5013317;28;20080;-75
2022/06/17 13:04:49;;;;;;;3.70;1.80;;;13.00;99.90;;;;;;5013279;28;20481;-74
2022/06/17 13:07:28;;;;;;;3.55;1.48;;;12.90;99.90;;;;;;5014862;28;20470;-76
2022/06/17 13:10:39;;;;;;;4.97;1.90;;;12.80;99.90;;;;;;5015193;28;20053;-76
2022/06/17 13:12:49;;;;;;;6.80;2.00;;;12.70;99.90;;;;;;5014225;28;20033;-74
2022/06/17 13:15:25;;;;;;;3.25;1.90;;;12.60;99.90;;;;;;5014501;28;20437;-74
2022/06/17 13:18:17;;;;;;;3.75;1.70;;;12.60;99.90;;;;;;5014517;28;20450;-74
2022/06/17 13:21:16;;;;;;;4.47;1.80;;;12.50;99.90;;;;;;5012692;28;20030;-74
2022/06/17 13:23:51;;;;;;;2.83;1.67;;;12.50;99.90;;;;;;5012975;28;20116;-74
2022/06/17 13:26:27;;;;;;;4.20;2.10;;;12.50;99.90;;;;;;5013034;28;20029;-75
2022/06/17 13:29:10;;;;;;;4.05;2.28;;;12.40;99.90;;;;;;5014584;28;20026;-74
2022/06/17 13:32:06;;;;;;;4.22;2.30;;;12.40;99.90;;;;;;5012869;28;20026;-75
2022/06/17 13:34:42;;;;;;;4.60;1.70;;;12.40;99.90;;;;;;5012504;28;20494;-75
2022/06/17 13:37:12;;;;;;;4.90;1.52;;;12.40;99.90;;;;;;5014180;28;20018;-75
2022/06/17 13:39:45;;;;;;;4.47;1.35;;;12.40;99.90;;;;;;5014210;28;20026;-75
2022/06/17 13:42:15;;;;;;;4.30;1.67;;;12.30;99.90;;;;;;5012576;28;20075;-76
2022/06/17 13:45:19;;;;;;;3.92;1.65;;;12.30;99.90;;;;;;5014283;28;20077;-75
2022/06/17 13:48:13;;;;;;;5.30;1.42;;;12.30;99.90;;;;;;5012477;28;20061;-74